createdAt,value
2018-02-06T00:00:00.789Z,40.75
2018-02-06T00:02:28.354Z,47.22
2018-02-06T00:04:55.900Z,38.30
2018-02-06T00:07:24.248Z,42.62
2018-02-06T00:09:53.419Z,42.92
2018-02-06T00:12:21.757Z,41.25
2018-02-06T00:14:50.183Z,46.50
2018-02-06T00:17:17.726Z,33.78
2018-02-06T00:19:45.281Z,39.70
2018-02-06T00:22:14.803Z,43.78
2018-02-06T00:24:43.125Z,40.35
2018-02-06T00:27:10.688Z,41.40
2018-02-06T00:29:38.282Z,42.85
2018-02-06T00:32:05.839Z,44.15
2018-02-06T00:34:33.409Z,36.20
2018-02-06T00:37:00.968Z,43.85
2018-02-06T00:39:28.523Z,40.28
2018-02-06T00:41:56.085Z,45.12
2018-02-06T00:44:24.543Z,48.78
2018-02-06T00:46:52.132Z,41.92
2018-02-06T00:49:19.681Z,46.83
2018-02-06T00:51:47.426Z,48.30
2018-02-06T00:54:15.119Z,45.75
2018-02-06T00:56:43.410Z,46.50
2018-02-06T00:59:10.939Z,44.55
2018-02-06T01:01:38.515Z,46.15
2018-02-06T01:04:06.074Z,43.65
2018-02-06T01:06:34.575Z,47.17
2018-02-06T01:09:02.972Z,43.60
2018-02-06T01:11:30.620Z,44.92
2018-02-06T01:13:58.241Z,44.70
2018-02-06T01:16:25.839Z,47.03
2018-02-06T01:18:54.255Z,40.10
2018-02-06T01:21:23.136Z,46.65
2018-02-06T01:23:50.732Z,43.17
2018-02-06T01:26:18.288Z,47.67
2018-02-06T01:28:46.659Z,43.45
2018-02-06T01:31:15.010Z,44.88
2018-02-06T01:33:43.374Z,48.67
2018-02-06T01:36:11.707Z,51.10
2018-02-06T01:38:39.342Z,49.10
2018-02-06T01:41:06.908Z,47.83
2018-02-06T01:43:36.010Z,45.40
2018-02-06T01:46:04.324Z,41.55
2018-02-06T01:48:31.911Z,44.42
2018-02-06T01:51:00.231Z,44.97
2018-02-06T01:53:27.832Z,47.75
2018-02-06T01:55:55.382Z,43.80
2018-02-06T01:58:23.071Z,43.40
2018-02-06T02:00:51.400Z,47.05
2018-02-06T02:03:18.991Z,45.35
2018-02-06T02:05:46.533Z,40.47
2018-02-06T02:08:14.122Z,48.13
2018-02-06T02:10:41.690Z,45.83
2018-02-06T02:13:09.268Z,45.83
2018-02-06T02:15:36.856Z,49.55
2018-02-06T02:18:04.476Z,48.72
2018-02-06T02:20:32.822Z,39.10
2018-02-06T02:23:00.366Z,50.55
2018-02-06T02:25:28.718Z,47.88
2018-02-06T02:27:57.051Z,53.40
2018-02-06T02:30:24.635Z,46.03
2018-02-06T02:32:53.488Z,49.53
2018-02-06T02:35:21.097Z,43.15
2018-02-06T02:37:48.650Z,45.60
2018-02-06T02:40:16.214Z,46.53
2018-02-06T04:38:30.124Z,51.17
2018-02-06T04:40:57.684Z,58.75
2018-02-06T04:43:26.464Z,48.90
2018-02-06T04:45:54.070Z,53.58
2018-02-06T04:48:21.665Z,47.47
2018-02-06T04:50:49.297Z,54.08
2018-02-06T04:53:16.852Z,56.75
2018-02-06T04:55:44.431Z,52.28
2018-02-06T04:58:11.989Z,57.78
2018-02-06T05:00:39.555Z,55.80
2018-02-06T05:03:07.172Z,56.33
2018-02-06T05:05:35.464Z,51.60
2018-02-06T05:08:03.059Z,59.28
2018-02-06T05:10:30.650Z,51.95
2018-02-06T05:12:58.279Z,60.12
2018-02-06T05:15:26.588Z,49.88
2018-02-06T05:17:54.216Z,52.53
2018-02-06T05:20:23.005Z,51.25
2018-02-06T05:22:50.573Z,59.42
2018-02-06T05:25:18.919Z,57.60
2018-02-06T05:27:46.467Z,56.67
2018-02-06T05:30:14.067Z,57.78
2018-02-06T05:32:42.374Z,55.12
2018-02-06T05:35:09.925Z,57.78
2018-02-06T05:37:38.234Z,47.92
2018-02-06T05:40:05.860Z,54.15
2018-02-06T05:42:33.459Z,51.67
2018-02-06T05:45:01.007Z,53.42
2018-02-06T05:47:28.599Z,53.20
2018-02-06T05:49:56.148Z,52.58
2018-02-06T05:52:24.562Z,48.65
2018-02-06T05:54:53.482Z,56.63
2018-02-06T05:57:21.084Z,54.33
2018-02-06T05:59:49.421Z,55.33
2018-02-06T06:02:17.136Z,61.00
2018-02-06T06:04:44.692Z,52.15
2018-02-06T06:07:12.245Z,62.75
2018-02-06T06:09:39.934Z,47.25
2018-02-06T06:12:07.795Z,56.53
2018-02-06T06:14:35.498Z,52.65
2018-02-06T06:17:04.095Z,51.53
2018-02-06T06:19:31.720Z,51.08
2018-02-06T06:22:00.048Z,58.03
2018-02-06T06:24:27.622Z,54.38
2018-02-06T06:26:55.935Z,51.75
2018-02-06T06:29:23.540Z,65.55
2018-02-06T06:31:51.125Z,56.00
2018-02-06T06:34:19.527Z,55.05
2018-02-06T06:36:47.150Z,53.85
2018-02-06T06:39:14.705Z,58.83
2018-02-06T06:41:42.308Z,58.78
2018-02-06T06:44:09.952Z,55.58
2018-02-06T06:46:38.338Z,59.78
2018-02-06T06:49:06.109Z,47.88
2018-02-06T06:51:33.771Z,64.57
2018-02-06T06:54:01.334Z,58.67
2018-02-06T06:56:28.909Z,56.88
2018-02-06T06:58:56.546Z,52.67
2018-02-06T07:01:24.177Z,56.15
2018-02-06T07:03:51.712Z,59.42
2018-02-06T07:06:19.386Z,50.50
2018-02-06T07:08:47.049Z,58.75
2018-02-06T07:11:14.689Z,58.03
2018-02-06T07:13:42.302Z,56.47
2018-02-06T07:16:09.931Z,59.85
2018-02-06T07:18:37.518Z,59.42
2018-02-06T07:21:05.133Z,56.08
2018-02-06T07:23:32.760Z,61.92
2018-02-06T07:26:00.372Z,55.85
2018-02-06T07:28:27.970Z,55.50
2018-02-06T07:30:55.560Z,55.63
2018-02-06T07:33:23.807Z,54.88
2018-02-06T07:35:51.412Z,55.80
2018-02-06T07:38:19.062Z,54.00
2018-02-06T07:40:46.738Z,59.15
2018-02-06T07:43:14.384Z,54.10
2018-02-06T07:45:42.852Z,57.83
2018-02-06T07:48:10.436Z,63.45
2018-02-06T07:50:38.134Z,59.05
2018-02-06T07:53:05.750Z,60.08
2018-02-06T07:55:33.392Z,63.35
2018-02-06T07:58:01.168Z,58.22
2018-02-06T08:00:28.807Z,67.62
2018-02-06T08:02:56.376Z,61.15
2018-02-06T08:05:25.463Z,59.33
2018-02-06T08:07:54.011Z,59.88
2018-02-06T08:10:22.888Z,66.72
2018-02-06T08:12:51.234Z,56.50
2018-02-06T08:15:18.868Z,55.53
2018-02-06T08:17:47.065Z,58.38
2018-02-06T08:20:15.969Z,52.55
2018-02-06T08:22:43.568Z,56.58
2018-02-06T08:25:11.222Z,59.15
2018-02-06T08:27:39.575Z,60.28
2018-02-06T08:30:08.089Z,54.85
2018-02-06T08:32:35.782Z,60.70
2018-02-06T08:35:03.450Z,56.45
2018-02-06T08:37:31.937Z,53.70
2018-02-06T08:39:59.644Z,54.63
2018-02-06T08:42:27.302Z,56.83
2018-02-06T08:44:54.929Z,58.58
2018-02-06T08:47:24.520Z,54.75
2018-02-06T08:49:52.171Z,63.35
2018-02-06T08:52:20.607Z,53.13
2018-02-06T08:54:48.268Z,57.95
2018-02-06T08:57:16.554Z,57.75
2018-02-06T08:59:44.964Z,58.70
2018-02-06T09:02:12.672Z,50.12
2018-02-06T09:04:40.440Z,54.00
2018-02-06T09:07:08.086Z,48.80
2018-02-06T09:09:36.497Z,46.13
2018-02-06T09:12:04.180Z,53.35
2018-02-06T09:14:32.305Z,51.20
2018-02-06T09:16:59.996Z,52.08
2018-02-06T09:19:27.755Z,52.58
2018-02-06T09:21:56.138Z,59.78
2018-02-06T09:24:25.001Z,58.80
2018-02-06T09:26:54.243Z,54.47
2018-02-06T09:29:22.068Z,50.90
2018-02-06T09:31:49.698Z,70.03
2018-02-06T09:34:17.629Z,60.70
2018-02-06T09:36:45.259Z,46.28
2018-02-06T09:39:12.930Z,50.78
2018-02-06T09:41:40.800Z,50.22
2018-02-06T09:44:08.514Z,50.80
2018-02-06T09:46:36.122Z,52.10
2018-02-06T09:49:04.007Z,50.97
2018-02-06T09:51:31.677Z,52.28
2018-02-06T09:53:59.290Z,43.78
2018-02-06T09:56:27.879Z,48.60
2018-02-06T09:58:55.535Z,52.25
2018-02-06T10:01:23.263Z,47.95
2018-02-06T10:03:51.674Z,54.97
2018-02-06T10:06:19.881Z,45.20
2018-02-06T10:08:47.485Z,46.45
2018-02-06T10:11:15.156Z,46.37
2018-02-06T10:13:43.553Z,47.03
2018-02-06T10:16:11.155Z,47.45
2018-02-06T10:18:39.578Z,45.95
2018-02-06T10:21:07.282Z,45.22
2018-02-06T10:23:34.974Z,46.22
2018-02-06T10:26:02.864Z,48.00
2018-02-06T10:28:30.574Z,58.42
2018-02-06T10:30:58.212Z,43.67
2018-02-06T10:33:26.292Z,46.33
2018-02-06T10:35:54.117Z,41.67
2018-02-06T10:38:21.725Z,43.33
2018-02-06T10:40:49.356Z,60.67
2018-02-06T10:43:16.955Z,51.77
2018-02-06T10:45:44.633Z,42.85
2018-02-06T10:48:12.278Z,40.53
2018-02-06T10:50:39.984Z,37.83
2018-02-06T10:53:07.698Z,37.38
2018-02-06T10:55:35.458Z,32.13
2018-02-06T10:58:03.050Z,40.13
2018-02-06T11:00:31.614Z,43.10
2018-02-06T11:02:59.321Z,44.27
2018-02-06T11:05:27.071Z,37.10
2018-02-06T11:07:54.643Z,41.23
2018-02-06T11:10:22.925Z,43.53
2018-02-06T11:12:50.534Z,38.73
2018-02-06T11:15:18.434Z,39.63
2018-02-06T11:17:46.912Z,43.93
2018-02-06T11:20:14.499Z,41.03
2018-02-06T11:22:42.184Z,40.37
2018-02-06T11:25:10.555Z,44.07
2018-02-06T11:27:38.910Z,38.57
2018-02-06T11:30:06.667Z,35.70
2018-02-06T11:32:34.271Z,37.80
2018-02-06T11:35:01.829Z,37.70
2018-02-06T11:37:29.452Z,36.40
2018-02-06T11:39:57.049Z,43.20
2018-02-06T11:42:25.088Z,29.80
2018-02-06T11:44:52.847Z,35.70
2018-02-06T11:47:21.419Z,32.57
2018-02-06T11:49:49.036Z,35.07
2018-02-06T11:52:17.745Z,37.30
2018-02-06T11:54:45.502Z,35.07
2018-02-06T11:57:13.110Z,37.13
2018-02-06T11:59:41.429Z,40.93
2018-02-06T12:02:09.033Z,36.03
2018-02-06T12:04:36.660Z,37.78
2018-02-06T12:07:05.052Z,39.70
2018-02-06T12:09:32.617Z,38.97
2018-02-06T12:12:00.303Z,44.50
2018-02-06T12:14:28.076Z,61.90
2018-02-06T12:16:55.743Z,47.47
2018-02-06T12:19:24.891Z,48.50
2018-02-06T12:21:52.544Z,41.10
2018-02-06T12:24:20.414Z,37.20
2018-02-06T12:26:48.011Z,42.67
2018-02-06T12:29:15.601Z,47.27
2018-02-06T12:31:43.968Z,42.88
2018-02-06T12:34:12.332Z,44.15
2018-02-06T12:36:40.083Z,48.87
2018-02-06T12:39:07.686Z,38.92
2018-02-06T12:41:35.225Z,48.85
2018-02-06T12:44:02.971Z,46.50
2018-02-06T12:46:30.630Z,42.62
2018-02-06T12:48:58.231Z,41.53
2018-02-06T12:51:26.183Z,64.87
2018-02-06T12:53:54.570Z,85.40
2018-02-06T12:56:22.789Z,48.67
2018-02-06T12:58:50.466Z,45.15
2018-02-06T13:01:18.383Z,41.60
2018-02-06T13:03:46.863Z,46.08
2018-02-06T13:06:15.430Z,42.28
2018-02-06T13:08:43.836Z,45.47
2018-02-06T13:11:11.470Z,42.75
2018-02-06T13:13:39.195Z,52.85
2018-02-06T13:16:07.570Z,47.03
2018-02-06T13:18:35.215Z,44.75
2018-02-06T13:21:02.960Z,45.78
2018-02-06T13:23:30.564Z,44.08
2018-02-06T13:25:59.129Z,44.38
2018-02-06T13:28:26.902Z,50.47
2018-02-06T13:30:55.340Z,47.85
2018-02-06T13:33:23.048Z,47.80
2018-02-06T13:35:50.775Z,47.17
2018-02-06T13:38:18.415Z,49.03
2018-02-06T13:40:46.097Z,53.58
2018-02-06T13:43:13.827Z,50.70
2018-02-06T13:45:41.534Z,47.38
2018-02-06T13:48:09.970Z,44.00
2018-02-06T13:50:37.680Z,49.78
2018-02-06T13:53:05.298Z,43.17
2018-02-06T13:55:33.776Z,50.10
2018-02-06T13:58:01.511Z,46.88
2018-02-06T14:00:29.917Z,50.20
2018-02-06T14:02:57.802Z,44.85
2018-02-06T14:05:26.566Z,44.00
2018-02-06T14:07:54.215Z,44.30
2018-02-06T14:10:22.108Z,47.88
2018-02-06T14:12:49.799Z,45.30
2018-02-06T14:15:18.372Z,42.58
2018-02-06T14:17:46.770Z,49.92
2018-02-06T14:20:14.618Z,44.53
2018-02-06T14:22:42.345Z,42.65
2018-02-06T14:25:10.689Z,47.17
2018-02-06T14:27:39.243Z,44.00
2018-02-06T14:30:07.915Z,41.33
2018-02-06T14:32:36.246Z,35.95
2018-02-06T14:35:03.969Z,47.80
2018-02-06T14:37:31.617Z,45.67
2018-02-06T14:39:59.311Z,42.92
2018-02-06T14:42:27.738Z,43.22
2018-02-06T14:44:55.326Z,46.70
2018-02-06T14:47:23.497Z,40.80
2018-02-06T14:49:51.306Z,41.88
2018-02-06T14:52:19.201Z,43.85
2018-02-06T14:54:47.060Z,42.47
2018-02-06T14:57:14.699Z,49.17
2018-02-06T14:59:43.050Z,42.78
2018-02-06T15:02:11.539Z,42.55
2018-02-06T15:04:39.095Z,42.08
2018-02-06T15:07:06.743Z,43.33
2018-02-06T15:09:34.621Z,41.70
2018-02-06T15:12:02.531Z,39.33
2018-02-06T15:14:30.130Z,44.53
2018-02-06T15:16:58.532Z,42.58
2018-02-06T15:19:26.089Z,48.67
2018-02-06T15:21:54.481Z,37.95
2018-02-06T15:24:22.865Z,38.17
2018-02-06T15:26:50.428Z,38.80
2018-02-06T15:29:18.076Z,41.95
2018-02-06T15:31:45.946Z,36.58
2018-02-06T15:34:14.370Z,33.40
2018-02-06T15:36:41.957Z,41.88
2018-02-06T15:39:09.660Z,44.67
2018-02-06T15:41:37.454Z,42.58
2018-02-06T15:44:05.832Z,40.22
2018-02-06T15:46:34.398Z,40.90
2018-02-06T15:49:02.056Z,35.58
2018-02-06T15:51:29.733Z,40.53
2018-02-06T15:53:57.528Z,35.83
2018-02-06T15:56:25.905Z,30.55
2018-02-06T15:58:53.933Z,42.35
2018-02-06T16:01:23.231Z,37.70
2018-02-06T16:03:50.853Z,34.90
2018-02-06T16:06:18.463Z,35.00
2018-02-06T16:08:46.127Z,30.90
2018-02-06T16:11:13.816Z,33.38
2018-02-06T16:13:41.504Z,38.40
2018-02-06T16:16:09.263Z,38.80
2018-02-06T16:18:37.624Z,33.00
2018-02-06T16:21:05.279Z,38.85
2018-02-06T16:23:32.953Z,42.67
2018-02-06T16:26:00.563Z,37.30
2018-02-06T16:28:28.195Z,36.53
2018-02-06T16:30:56.648Z,35.53
2018-02-06T16:33:24.234Z,36.05
2018-02-06T16:35:53.005Z,37.28
2018-02-06T16:38:20.674Z,39.15
2018-02-06T16:40:48.342Z,36.50
2018-02-06T16:43:16.776Z,33.10
2018-02-06T16:45:44.676Z,36.88
2018-02-06T16:48:13.121Z,34.45
2018-02-06T16:50:41.581Z,35.03
2018-02-06T16:53:10.058Z,40.45
2018-02-06T16:55:38.511Z,36.97
2018-02-06T16:58:06.234Z,36.90
2018-02-06T17:00:34.783Z,44.30
2018-02-06T17:03:02.465Z,35.35
2018-02-06T17:05:30.056Z,33.88
2018-02-06T17:07:57.685Z,33.45
2018-02-06T17:10:25.287Z,38.03
2018-02-06T17:12:53.431Z,37.00
2018-02-06T17:15:22.113Z,40.03
2018-02-06T17:17:49.729Z,37.80
2018-02-06T17:20:17.485Z,36.17
2018-02-06T17:22:45.914Z,36.78
2018-02-06T17:25:13.470Z,37.33
2018-02-06T17:27:41.049Z,35.03
2018-02-06T17:30:08.719Z,38.13
2018-02-06T17:32:39.217Z,36.42
2018-02-06T17:35:07.572Z,49.47
2018-02-06T17:37:35.173Z,42.78
2018-02-06T17:40:03.350Z,37.13
2018-02-06T17:42:30.938Z,38.15
2018-02-06T17:44:58.669Z,42.70
2018-02-06T17:47:26.335Z,46.15
2018-02-06T17:49:53.953Z,37.35
2018-02-06T17:52:21.640Z,43.45
2018-02-06T17:54:49.218Z,42.35
2018-02-06T17:57:17.554Z,45.05
2018-02-06T17:59:45.161Z,39.70
2018-02-06T18:02:12.771Z,41.20
2018-02-06T18:04:41.115Z,39.60
2018-02-06T18:07:08.709Z,40.65
2018-02-06T18:09:37.016Z,50.38
2018-02-06T18:12:04.560Z,49.72
2018-02-06T18:14:32.162Z,51.70
2018-02-06T18:17:00.500Z,48.80
2018-02-06T18:19:28.070Z,45.05
2018-02-06T18:21:56.519Z,46.30
2018-02-06T18:24:24.072Z,52.85
2018-02-06T18:26:51.657Z,46.92
2018-02-06T18:29:19.290Z,46.85
2018-02-06T18:31:46.866Z,45.38
2018-02-06T18:34:14.431Z,49.20
2018-02-06T18:36:42.028Z,42.25
2018-02-06T18:39:09.599Z,44.88
2018-02-06T18:41:37.231Z,56.83
2018-02-06T18:44:04.853Z,46.88
2018-02-06T18:46:32.410Z,44.22
2018-02-06T18:49:00.825Z,51.42
2018-02-06T18:51:29.502Z,46.20
2018-02-06T18:53:57.061Z,48.10
2018-02-06T18:56:25.496Z,54.33
2018-02-06T18:58:53.191Z,49.88
2018-02-06T19:01:20.818Z,50.33
2018-02-06T19:03:49.156Z,41.03
2018-02-06T19:06:17.511Z,48.85
2018-02-06T19:08:45.115Z,52.25
2018-02-06T19:11:12.701Z,42.97
2018-02-06T19:13:41.026Z,48.70
2018-02-06T19:16:08.588Z,50.95
2018-02-06T19:18:36.160Z,48.50
2018-02-06T19:21:03.740Z,48.75
2018-02-06T19:23:31.281Z,47.42
2018-02-06T19:25:58.931Z,55.90
2018-02-06T19:28:26.489Z,50.05
2018-02-06T19:30:54.034Z,55.58
2018-02-06T19:33:22.480Z,48.40
2018-02-06T19:35:50.014Z,53.55
2018-02-06T19:38:18.351Z,51.15
2018-02-06T19:40:46.720Z,47.88
2018-02-06T19:43:14.290Z,49.88
2018-02-06T19:45:41.844Z,48.60
2018-02-06T19:48:09.446Z,49.08
2018-02-06T19:50:37.077Z,48.22
2018-02-06T19:53:04.624Z,51.33
2018-02-06T19:55:32.210Z,47.13
2018-02-06T19:58:00.583Z,51.78
2018-02-06T20:00:28.183Z,58.80
2018-02-06T20:02:55.791Z,47.10
2018-02-06T20:05:24.167Z,52.53
2018-02-06T20:07:53.823Z,48.75
2018-02-06T20:10:22.820Z,53.42
2018-02-06T20:12:50.438Z,54.05
2018-02-06T20:15:18.757Z,51.80
2018-02-06T20:17:46.398Z,59.45
2018-02-06T20:20:14.797Z,50.97
2018-02-06T20:22:42.361Z,49.17
2018-02-06T20:25:10.797Z,51.65
2018-02-06T20:27:38.401Z,56.08
2018-02-06T20:30:05.989Z,58.55
2018-02-06T20:32:33.591Z,55.25
2018-02-06T20:35:01.238Z,51.30
2018-02-06T20:37:28.791Z,51.75
2018-02-06T20:39:56.473Z,55.88
2018-02-06T20:42:24.047Z,54.13
2018-02-06T20:44:51.584Z,56.05
2018-02-06T20:47:19.224Z,55.40
2018-02-06T20:49:46.824Z,53.33
2018-02-06T20:52:14.428Z,53.53
2018-02-06T20:54:42.861Z,49.85
2018-02-06T20:57:10.448Z,62.67
2018-02-06T20:59:38.004Z,61.45
2018-02-06T21:02:05.615Z,53.70
2018-02-06T21:04:33.167Z,46.35
2018-02-06T21:07:01.533Z,47.15
2018-02-06T21:09:29.146Z,50.78
2018-02-06T21:11:56.737Z,53.05
2018-02-06T21:14:24.352Z,52.35
2018-02-06T21:16:51.979Z,52.97
2018-02-06T21:19:19.568Z,51.17
2018-02-06T21:21:47.170Z,54.67
2018-02-06T21:24:14.769Z,48.75
2018-02-06T21:26:42.344Z,49.53
2018-02-06T21:29:09.966Z,54.50
2018-02-06T21:31:37.579Z,50.67
2018-02-06T21:34:05.242Z,51.67
2018-02-06T21:36:32.804Z,52.03
2018-02-06T21:39:00.447Z,56.60
2018-02-06T21:41:28.381Z,50.80
2018-02-06T21:43:55.931Z,51.13
2018-02-06T21:46:23.508Z,54.97
2018-02-06T21:48:51.232Z,60.30
2018-02-06T21:51:18.848Z,53.65
2018-02-06T21:53:46.399Z,54.17
2018-02-06T21:56:13.965Z,54.67
2018-02-06T21:58:42.316Z,69.40
2018-02-06T22:01:09.869Z,56.22
2018-02-06T22:03:37.417Z,61.30
2018-02-06T22:06:05.000Z,56.97
2018-02-06T22:08:32.564Z,52.60
2018-02-06T22:11:00.290Z,63.45
2018-02-06T22:13:28.740Z,54.58
2018-02-06T22:15:57.343Z,62.80
2018-02-06T22:18:29.561Z,68.00
2018-02-06T22:20:58.128Z,64.53
2018-02-06T22:23:25.694Z,59.58
2018-02-06T22:25:54.012Z,54.92
2018-02-06T22:28:21.604Z,57.00
2018-02-06T22:30:49.149Z,58.10
2018-02-06T22:33:17.495Z,58.35
2018-02-06T22:35:45.033Z,57.08
2018-02-06T22:38:12.601Z,57.80
2018-02-06T22:40:40.188Z,54.50
2018-02-06T22:43:07.774Z,60.88
2018-02-06T22:45:36.098Z,58.40
2018-02-06T22:48:03.738Z,69.60
2018-02-06T22:50:32.313Z,56.70
2018-02-06T22:53:00.880Z,59.05
2018-02-06T22:55:28.468Z,61.88
2018-02-06T22:57:56.058Z,56.83
2018-02-06T23:00:23.629Z,60.28
2018-02-06T23:02:51.214Z,59.00
2018-02-06T23:05:18.764Z,60.88
2018-02-06T23:07:46.307Z,59.33
2018-02-06T23:10:13.905Z,68.32
2018-02-06T23:12:41.463Z,60.35
2018-02-06T23:15:08.992Z,66.45
2018-02-06T23:17:36.567Z,67.65
2018-02-06T23:20:04.132Z,60.60
2018-02-06T23:22:32.439Z,69.75
2018-02-06T23:25:00.040Z,59.83
2018-02-06T23:27:27.589Z,66.95
2018-02-06T23:29:55.154Z,58.35
2018-02-06T23:32:22.835Z,61.78
2018-02-06T23:34:50.396Z,62.70
2018-02-06T23:37:17.992Z,59.30
2018-02-06T23:39:45.551Z,65.82
2018-02-06T23:42:13.168Z,66.15
2018-02-06T23:44:40.812Z,66.78
2018-02-06T23:47:08.374Z,67.07
2018-02-06T23:49:36.696Z,67.62
2018-02-06T23:52:05.052Z,63.20
2018-02-06T23:54:32.605Z,66.55
2018-02-06T23:57:00.252Z,68.15
2018-02-06T23:59:27.826Z,59.00
